Time;durP1;ratioP1;P1;durP2;ratioP2;P2;SDS_P1;SDS_P2;PMS_P1;PMS_P2;Temp;Humidity;BMP_temperature;BMP_pressure;BME280_temperature;BME280_humidity;BME280_pressure;Samples;Min_cycle;Max_cycle;Signal;HPM_P1;HPM_P2
2022/04/25 00:01:24;;;;;;;14.43;10.88;;;;;;;13.28;67.40;100675.03;5032753;27;102303;-49
2022/04/25 00:03:50;;;;;;;11.13;9.77;;;;;;;13.27;67.40;100666.03;5034714;27;102494;-51
2022/04/25 00:06:20;;;;;;;13.05;10.90;;;;;;;13.28;67.39;100666.81;5019286;27;103705;-51
2022/04/25 00:08:47;;;;;;;11.97;10.10;;;;;;;13.28;67.37;100661.38;5013722;28;102178;-50
2022/04/25 00:11:19;;;;;;;12.00;10.73;;;;;;;13.28;67.38;100666.81;5013587;27;102143;-51
2022/04/25 00:13:47;;;;;;;11.80;10.25;;;;;;;13.27;67.46;100659.72;5014507;28;102679;-52
2022/04/25 00:16:15;;;;;;;13.55;11.57;;;;;;;13.28;67.48;100662.16;5012719;27;103903;-49
2022/04/25 00:18:47;;;;;;;12.15;10.88;;;;;;;13.27;67.43;100665.19;5014222;28;102265;-52
2022/04/25 00:21:14;;;;;;;;;;;;;;;13.27;67.23;100660.56;5032456;27;102375;-49
2022/04/25 00:23:46;;;;;;;11.25;10.05;;;;;;;13.28;67.49;100661.38;5033796;27;101962;-50
2022/04/25 00:26:13;;;;;;;10.85;9.75;;;;;;;13.27;67.53;100657.81;5028504;27;104116;-49
2022/04/25 00:28:40;;;;;;;11.77;10.20;;;;;;;13.28;67.48;100661.38;5032967;27;102508;-49
2022/04/25 00:31:06;;;;;;;12.02;10.65;;;;;;;13.27;67.35;100666.03;5032181;27;102070;-50
2022/04/25 00:33:37;;;;;;;13.75;11.15;;;;;;;13.27;67.53;100666.03;5033964;27;102379;-49
2022/04/25 00:36:05;;;;;;;11.15;10.02;;;;;;;13.27;67.85;100660.56;5022804;27;104158;-49
2022/04/25 00:38:34;;;;;;;11.97;10.77;;;;;;;13.27;67.48;100659.72;5025090;27;102235;-50
2022/04/25 00:41:09;;;;;;;11.90;10.52;;;;;;;13.28;67.49;100666.81;5032237;27;102439;-49
2022/04/25 00:43:36;;;;;;;11.95;10.32;;;;;;;13.27;67.54;100659.72;5027711;27;102165;-50
2022/04/25 00:46:03;;;;;;;11.85;10.45;;;;;;;13.27;67.57;100662.44;5015284;27;103968;-49
2022/04/25 00:48:33;;;;;;;12.20;9.98;;;;;;;13.27;67.54;100659.72;5032883;27;102172;-49
2022/04/25 00:51:04;;;;;;;13.50;10.55;;;;;;;13.26;67.36;100653.44;5030307;27;102099;-49
2022/04/25 00:53:30;;;;;;;10.93;9.82;;;;;;;13.26;67.36;100652.63;5012915;28;102408;-49
2022/04/25 00:55:59;;;;;;;11.02;9.60;;;;;;;13.26;67.45;100642.50;5011036;27;104507;-50
2022/04/25 00:58:31;;;;;;;11.93;10.13;;;;;;;13.27;67.36;100640.59;5012332;28;102418;-49
2022/04/25 01:00:58;;;;;;;12.80;10.57;;;;;;;13.26;67.26;100644.44;5011594;28;103821;-49
2022/04/25 01:03:25;;;;;;;10.52;9.52;;;;;;;13.26;67.48;100655.34;5013340;28;102296;-51
2022/04/25 01:06:11;;;;;;;10.80;9.77;;;;;;;13.27;67.45;100656.97;5021686;27;104760;-50
2022/04/25 01:08:39;;;;;;;10.95;9.85;;;;;;;13.26;67.61;100663.56;5032475;27;102452;-49
2022/04/25 01:11:07;;;;;;;11.25;9.90;;;;;;;13.26;67.41;100664.38;5032190;27;102453;-49
2022/04/25 01:13:35;;;;;;;11.43;10.38;;;;;;;13.27;67.45;100651.50;5032994;27;102153;-50
2022/04/25 01:16:01;;;;;;;10.63;9.52;;;;;;;13.27;67.51;100656.97;5022302;27;103861;-50
2022/04/25 01:18:28;;;;;;;10.82;9.73;;;;;;;13.27;67.43;100646.03;5012433;28;102534;-49
2022/04/25 01:20:58;;;;;;;11.52;10.07;;;;;;;13.27;67.36;100649.63;5011954;27;102529;-49
2022/04/25 01:28:58;;;;;;;10.90;9.77;;;;;;;13.26;67.45;100644.44;5011962;28;102431;-49
2022/04/25 01:31:26;;;;;;;10.30;9.20;;;;;;;13.26;67.53;100650.69;5030561;28;102706;-49
2022/04/25 01:33:53;;;;;;;10.48;9.45;;;;;;;13.27;67.60;100644.16;5032681;27;102404;-50
2022/04/25 01:36:22;;;;;;;10.70;9.68;;;;;;;13.26;67.44;100639.78;5029994;27;103679;-51
2022/04/25 01:38:50;;;;;;;10.20;9.20;;;;;;;13.26;67.51;100630.75;5023622;27;102428;-49
2022/04/25 01:41:17;;;;;;;11.00;9.90;;;;;;;13.26;67.57;100641.69;5025733;27;102909;-49
2022/04/25 01:43:43;;;;;;;11.52;10.32;;;;;;;13.27;67.42;100648.78;5022573;28;102130;-49
2022/04/25 01:46:12;;;;;;;10.23;9.15;;;;;;;13.27;67.74;100654.25;5019017;27;103922;-50
2022/04/25 01:48:39;;;;;;;10.30;9.18;;;;;;;13.26;67.51;100656.16;5030997;28;102308;-49
2022/04/25 01:51:06;;;;;;;10.45;9.30;;;;;;;13.27;67.35;100655.09;5019150;27;102050;-50
2022/04/25 01:53:34;;;;;;;10.68;9.52;;;;;;;13.27;67.53;100640.59;5012600;28;102256;-50
2022/04/25 01:56:03;;;;;;;9.60;8.70;;;;;;;13.26;67.28;100641.69;5010810;27;104103;-49
2022/04/25 01:58:30;;;;;;;9.55;8.65;;;;;;;13.27;67.50;100643.31;5011532;28;102424;-50
2022/04/25 02:00:56;;;;;;;10.02;9.02;;;;;;;13.26;67.51;100647.16;5010864;28;102347;-50
2022/04/25 02:03:23;;;;;;;9.77;8.77;;;;;;;13.26;67.65;100636.22;5013903;28;102493;-50
2022/04/25 02:05:50;;;;;;;9.57;8.65;;;;;;;13.25;67.52;100627.22;5017810;27;103379;-49
2022/04/25 02:08:18;;;;;;;9.85;8.57;;;;;;;13.26;67.70;100630.75;5014688;28;102042;-49
2022/04/25 02:11:19;;;;;;;10.73;9.63;;;;;;;13.25;67.50;100629.97;5024179;28;101917;-49
2022/04/25 02:13:36;;;;;;;11.23;9.70;;;;;;;13.25;67.56;100624.50;5029573;27;102429;-50
2022/04/25 02:16:05;;;;;;;10.73;9.63;;;;;;;13.26;67.59;100625.31;5014023;27;103944;-49
2022/04/25 02:18:32;;;;;;;10.07;9.07;;;;;;;13.25;67.63;100618.22;5016704;28;102427;-50
2022/04/25 02:20:59;;;;;;;11.75;9.18;;;;;;;13.24;67.60;100622.88;5020287;27;102315;-49
2022/04/25 02:23:25;;;;;;;9.98;8.98;;;;;;;13.24;67.58;100622.88;5035865;27;102316;-50
2022/04/25 02:25:52;;;;;;;9.82;8.77;;;;;;;13.24;67.72;100622.06;5032765;27;104088;-50
2022/04/25 02:28:19;;;;;;;10.52;9.43;;;;;;;13.24;67.43;100616.59;5034884;27;102514;-49
2022/04/25 02:30:47;;;;;;;9.93;9.00;;;;;;;13.23;67.61;100621.19;5033673;27;102437;-49
2022/04/25 02:33:14;;;;;;;10.20;9.20;;;;;;;13.25;67.45;100620.94;5035881;27;102188;-52
2022/04/25 02:35:41;;;;;;;9.77;8.77;;;;;;;13.24;67.41;100620.13;5025071;27;103532;-51
2022/04/25 02:38:08;;;;;;;9.98;8.85;;;;;;;13.23;67.38;100615.72;5022785;28;102342;-50
2022/04/25 02:40:34;;;;;;;10.80;9.30;;;;;;;13.24;67.43;100622.06;5033560;27;101988;-49
2022/04/25 02:43:01;;;;;;;10.70;9.60;;;;;;;13.24;67.48;100622.06;5034978;27;102268;-50
2022/04/25 02:45:28;;;;;;;10.25;9.15;;;;;;;13.24;67.31;100628.34;5022319;27;103688;-49
2022/04/25 02:47:56;;;;;;;10.18;9.13;;;;;;;13.25;67.25;100631.88;5014716;28;101866;-49
2022/04/25 02:50:22;;;;;;;10.07;9.05;;;;;;;13.23;67.38;100626.66;5013928;27;102443;-52
2022/04/25 02:52:53;;;;;;;10.27;9.05;;;;;;;13.24;67.58;100628.34;5016326;27;102314;-50
2022/04/25 02:55:20;;;;;;;9.30;8.40;;;;;;;13.24;67.46;100627.53;5013074;27;103995;-49
2022/04/25 02:57:49;;;;;;;9.65;8.75;;;;;;;13.24;67.47;100628.34;5014256;28;101938;-49
2022/04/25 03:00:17;;;;;;;9.88;8.88;;;;;;;13.24;67.55;100633.81;5013536;28;101954;-50
2022/04/25 03:02:44;;;;;;;9.40;8.50;;;;;;;13.23;67.43;100629.38;5021424;28;102257;-49
2022/04/25 03:05:13;;;;;;;9.40;8.48;;;;;;;13.23;67.62;100634.84;5013121;27;103911;-50
2022/04/25 03:07:42;;;;;;;9.25;8.35;;;;;;;13.23;67.70;100632.13;5020502;27;102060;-49
2022/04/25 03:10:09;;;;;;;10.35;8.93;;;;;;;13.24;67.40;100638.47;5013404;28;102135;-50
2022/04/25 03:12:38;;;;;;;9.50;8.60;;;;;;;13.24;67.41;100635.72;5014336;28;102138;-49
2022/04/25 03:15:06;;;;;;;10.57;8.90;;;;;;;13.24;67.95;100630.25;5012973;27;104067;-49
2022/04/25 03:17:33;;;;;;;9.30;8.30;;;;;;;13.24;67.52;100628.34;5033632;28;102166;-49
2022/04/25 03:20:00;;;;;;;10.10;8.68;;;;;;;13.24;67.67;100633.00;5028409;27;101753;-49
2022/04/25 03:22:33;;;;;;;9.48;8.50;;;;;;;13.23;67.53;100637.59;5014688;28;102181;-49
2022/04/25 03:25:00;;;;;;;9.85;8.85;;;;;;;13.25;67.52;100648.28;5012175;27;103940;-49
2022/04/25 03:27:27;;;;;;;9.88;8.85;;;;;;;13.25;67.65;100656.47;5017232;28;101821;-49
2022/04/25 03:29:53;;;;;;;9.13;8.05;;;;;;;13.25;67.47;100653.75;5033134;27;102203;-51
2022/04/25 03:32:22;;;;;;;9.10;8.20;;;;;;;13.25;67.50;100656.47;5033380;27;102410;-50
2022/04/25 03:34:48;;;;;;;9.80;8.90;;;;;;;13.25;67.53;100656.47;5021472;27;103942;-50
2022/04/25 03:37:14;;;;;;;8.85;7.95;;;;;;;13.24;67.50;100658.41;5018147;27;102329;-49
2022/04/25 03:39:43;;;;;;;8.75;7.88;;;;;;;13.25;67.53;100659.22;5020565;28;101975;-49
2022/04/25 03:42:10;;;;;;;8.63;7.82;;;;;;;13.25;67.54;100661.94;5023853;27;102183;-49
2022/04/25 03:44:38;;;;;;;8.57;7.78;;;;;;;13.25;67.38;100654.56;5028700;27;103953;-49
2022/04/25 03:47:08;;;;;;;8.55;7.70;;;;;;;13.25;67.33;100657.28;5033191;27;101875;-50
2022/04/25 03:49:35;;;;;;;9.77;7.95;;;;;;;13.25;67.69;100660.00;5032854;27;101890;-52
2022/04/25 03:52:02;;;;;;;9.13;8.02;;;;;;;13.26;67.39;100658.09;5017770;27;101924;-49
2022/04/25 03:57:19;;;;;;;8.65;7.70;;;;;;;13.27;67.40;100665.19;5033180;28;101825;-50
2022/04/25 03:59:46;;;;;;;8.07;7.32;;;;;;;13.28;67.29;100666.81;5032612;27;102318;-50
2022/04/25 04:02:14;;;;;;;8.57;7.63;;;;;;;13.28;67.43;100661.38;5024723;27;102259;-50
2022/04/25 04:04:41;;;;;;;8.05;7.25;;;;;;;13.28;67.23;100659.44;5015059;27;104050;-49
2022/04/25 04:07:08;;;;;;;9.30;6.72;;;;;;;13.29;67.37;100657.50;5012786;28;101861;-49
2022/04/25 04:09:47;;;;;;;8.20;7.40;;;;;;;13.30;67.27;100661.88;5012661;28;101967;-50
2022/04/25 04:12:14;;;;;;;7.63;6.82;;;;;;;13.29;67.57;100658.31;5024685;27;102274;-50
2022/04/25 04:14:44;;;;;;;7.97;7.07;;;;;;;13.30;67.39;100670.88;5012031;28;103678;-49
2022/04/25 04:17:17;;;;;;;8.07;7.28;;;;;;;13.30;67.48;100667.34;5021998;28;101895;-51
2022/04/25 04:19:46;;;;;;;8.20;7.40;;;;;;;13.31;67.44;100674.44;5033018;27;102563;-49
2022/04/25 04:22:13;;;;;;;8.35;7.55;;;;;;;13.31;67.26;100666.25;5016511;27;102576;-50
2022/04/25 04:24:43;;;;;;;7.47;6.78;;;;;;;13.32;67.42;100673.34;5012351;28;104692;-50
2022/04/25 04:27:09;;;;;;;7.43;6.65;;;;;;;13.32;67.40;100659.66;5012760;28;102056;-51
2022/04/25 04:29:36;;;;;;;9.25;6.65;;;;;;;13.32;67.43;100663.22;5012461;27;102106;-49
2022/04/25 04:32:07;;;;;;;10.82;7.78;;;;;;;13.32;67.57;100665.13;5016181;27;102165;-50
2022/04/25 04:34:36;;;;;;;7.65;6.95;;;;;;;13.33;67.48;100670.31;5017958;27;103982;-52
2022/04/25 04:37:04;;;;;;;7.80;7.10;;;;;;;13.35;67.48;100672.75;5012926;28;101867;-50
2022/04/25 04:39:33;;;;;;;8.48;7.00;;;;;;;13.34;67.42;100662.91;5012349;27;102213;-49
2022/04/25 04:42:04;;;;;;;8.40;7.50;;;;;;;13.35;67.49;100667.28;5026121;27;103733;-49
2022/04/25 04:44:30;;;;;;;7.57;6.88;;;;;;;13.35;67.43;100667.28;5031813;27;103842;-50
2022/04/25 04:46:57;;;;;;;9.02;7.30;;;;;;;13.37;67.46;100670.53;5031958;27;102105;-51
2022/04/25 04:49:31;;;;;;;10.27;6.65;;;;;;;13.37;67.44;100682.28;5030483;27;102321;-49
2022/04/25 04:51:57;;;;;;;7.22;6.35;;;;;;;13.38;67.53;100672.16;5013024;28;102198;-51
2022/04/25 04:54:23;;;;;;;7.32;6.63;;;;;;;13.38;67.54;100673.00;5012060;28;104443;-49
2022/04/25 04:56:54;;;;;;;7.00;6.30;;;;;;;13.39;67.40;100674.63;5012306;28;102272;-50
2022/04/25 04:59:20;;;;;;;6.40;5.80;;;;;;;13.41;67.39;100677.03;5024686;28;102291;-49
2022/04/25 05:01:51;;;;;;;6.85;6.22;;;;;;;13.41;67.62;100680.59;5033072;27;102367;-49
2022/04/25 05:04:18;;;;;;;5.93;5.43;;;;;;;13.43;67.58;100685.78;5031113;27;103897;-49
2022/04/25 05:06:46;;;;;;;6.82;6.13;;;;;;;13.43;67.59;100672.91;5016317;27;102306;-52
2022/04/25 05:09:13;;;;;;;6.57;5.88;;;;;;;13.44;67.42;100679.19;5011941;28;101907;-49
2022/04/25 05:11:44;;;;;;;17.30;7.63;;;;;;;13.45;68.43;100668.00;5017450;27;103766;-50
2022/04/25 05:14:11;;;;;;;6.43;5.82;;;;;;;13.48;67.50;100671.22;5023459;27;103975;-50
2022/04/25 05:16:42;;;;;;;6.35;5.75;;;;;;;13.49;67.57;100673.69;5029424;27;103891;-50
2022/04/25 05:19:12;;;;;;;7.68;6.53;;;;;;;13.51;67.39;100676.13;5028049;27;102076;-49
2022/04/25 05:21:41;;;;;;;;;;;;;;;13.51;67.26;100668.72;5032128;27;102731;-49
2022/04/25 05:24:09;;;;;;;6.50;5.93;;;;;;;13.53;67.41;100672.00;5024821;28;104078;-49
2022/04/25 05:26:36;;;;;;;6.72;6.10;;;;;;;13.54;67.33;100670.88;5029782;27;102396;-51
2022/04/25 05:29:05;;;;;;;7.50;6.63;;;;;;;13.57;67.29;100674.97;5030277;27;102093;-50
2022/04/25 05:31:38;;;;;;;7.10;6.40;;;;;;;13.58;67.39;100660.97;5031647;27;102497;-49
2022/04/25 05:34:04;;;;;;;8.23;5.90;;;;;;;13.59;67.22;100676.28;5030000;27;103972;-49
2022/04/25 05:36:34;;;;;;;7.43;5.70;;;;;;;13.62;67.33;100675.69;5029485;27;102329;-50
2022/04/25 05:39:00;;;;;;;7.13;6.25;;;;;;;13.64;67.14;100673.50;5022295;27;102525;-49
2022/04/25 05:41:29;;;;;;;6.22;5.65;;;;;;;13.65;67.34;100675.13;5019484;27;102156;-49
2022/04/25 05:43:57;;;;;;;6.78;5.93;;;;;;;13.66;67.44;100671.25;5019556;27;103896;-49
2022/04/25 05:46:24;;;;;;;6.88;6.18;;;;;;;13.70;67.20;100676.97;5029848;27;104358;-49
2022/04/25 05:54:21;;;;;;;6.82;6.13;;;;;;;13.73;67.39;100683.78;5015076;28;104028;-50
2022/04/25 05:56:49;;;;;;;6.50;5.90;;;;;;;13.74;67.34;100686.22;5031658;28;101798;-49
2022/04/25 05:59:15;;;;;;;6.00;5.38;;;;;;;13.76;67.24;100689.47;5022192;27;102358;-50
2022/04/25 06:01:42;;;;;;;7.00;6.30;;;;;;;13.77;67.46;100695.75;5033327;27;102277;-49
2022/04/25 06:04:09;;;;;;;6.43;5.85;;;;;;;13.79;67.02;100688.09;5030658;27;104215;-49
2022/04/25 06:06:35;;;;;;;6.75;6.13;;;;;;;13.80;67.37;100684.22;5031315;27;102351;-50
2022/04/25 06:09:02;;;;;;;5.70;5.20;;;;;;;13.81;67.36;100688.59;5011619;27;102403;-49
2022/04/25 06:11:29;;;;;;;6.20;5.60;;;;;;;13.82;67.32;100677.38;5017197;28;102369;-50
2022/04/25 06:13:57;;;;;;;6.40;5.53;;;;;;;13.84;67.32;100682.53;5027735;27;104093;-49
2022/04/25 06:16:24;;;;;;;6.13;5.47;;;;;;;13.84;67.14;100677.06;5023464;27;101993;-50
2022/04/25 06:18:50;;;;;;;6.30;5.70;;;;;;;13.86;67.41;100677.59;5013461;28;101846;-49
2022/04/25 06:21:16;;;;;;;6.07;5.50;;;;;;;13.88;67.19;100680.84;5031910;27;102140;-48
2022/04/25 06:23:44;;;;;;;7.95;5.88;;;;;;;13.88;67.28;100681.66;5030813;28;103876;-49
2022/04/25 06:26:11;;;;;;;7.90;5.30;;;;;;;13.90;67.39;100681.38;5031328;27;102464;-50
2022/04/25 06:28:37;;;;;;;6.60;5.68;;;;;;;13.91;67.33;100686.53;5027114;27;102355;-50
2022/04/25 06:31:08;;;;;;;6.45;5.50;;;;;;;13.92;67.29;100690.09;5031714;27;102353;-48
2022/04/25 06:33:39;;;;;;;6.57;5.88;;;;;;;13.94;67.39;100685.13;5013019;28;103572;-49
2022/04/25 06:36:06;;;;;;;6.30;5.70;;;;;;;13.97;67.11;100689.22;5030894;27;101797;-49
2022/04/25 06:38:33;;;;;;;7.55;5.90;;;;;;;13.98;67.32;100691.63;5029911;27;102481;-49
2022/04/25 06:41:04;;;;;;;6.57;5.85;;;;;;;13.98;67.36;100685.34;5014049;27;102007;-49
2022/04/25 06:43:31;;;;;;;6.15;5.55;;;;;;;13.99;67.24;100687.78;5015168;27;103895;-50
2022/04/25 06:45:58;;;;;;;6.57;5.97;;;;;;;14.01;67.25;100690.25;5020213;28;102376;-50
2022/04/25 06:48:27;;;;;;;5.90;5.35;;;;;;;14.02;67.14;100692.69;5027848;28;101923;-49
2022/04/25 06:50:55;;;;;;;7.23;5.47;;;;;;;14.03;67.17;100680.66;5034322;27;102496;-50
2022/04/25 06:53:24;;;;;;;6.60;5.57;;;;;;;14.03;67.43;100683.38;5035246;27;104003;-49
2022/04/25 06:55:51;;;;;;;6.10;5.50;;;;;;;14.03;67.09;100682.53;5029414;27;102489;-49
2022/04/25 06:58:17;;;;;;;7.75;5.45;;;;;;;14.06;67.63;100685.50;5033554;27;102025;-50
2022/04/25 07:00:46;;;;;;;6.13;5.55;;;;;;;14.09;67.30;100687.66;5034647;27;102140;-50
2022/04/25 07:03:15;;;;;;;7.50;5.82;;;;;;;14.09;67.35;100690.38;5029647;27;103958;-49
2022/04/25 07:05:44;;;;;;;5.82;5.10;;;;;;;14.11;67.27;100677.22;5027615;27;102404;-49
2022/04/25 07:08:12;;;;;;;5.80;5.20;;;;;;;14.13;67.49;100680.47;5015657;27;102531;-49
2022/04/25 07:10:46;;;;;;;6.95;5.57;;;;;;;14.13;67.35;100683.22;5030412;27;102524;-50
2022/04/25 07:13:14;;;;;;;6.95;5.57;;;;;;;14.16;67.26;100677.16;5027126;27;103929;-49
2022/04/25 07:15:40;;;;;;;6.95;6.07;;;;;;;14.15;67.32;100675.53;5023661;27;102558;-49
2022/04/25 07:18:07;;;;;;;6.18;5.25;;;;;;;14.17;67.33;100684.28;5028081;27;102039;-50
2022/04/25 07:20:34;;;;;;;5.70;5.20;;;;;;;14.18;67.00;100674.13;5020039;27;102020;-49
2022/04/25 07:28:49;;;;;;;6.18;5.57;;;;;;;14.22;67.27;100663.41;5021754;27;102924;-51
2022/04/25 07:31:15;;;;;;;6.05;5.45;;;;;;;14.23;67.31;100659.53;5014201;27;101888;-49
2022/04/25 07:33:45;;;;;;;;;;;;;;;14.22;67.02;100657.94;5031282;27;104108;-49
2022/04/25 07:36:17;;;;;;;5.47;4.85;;;;;;;14.24;67.20;100661.16;5015228;27;102335;-50
2022/04/25 07:38:45;;;;;;;6.40;5.68;;;;;;;14.24;67.22;100650.22;5012569;27;102657;-49
2022/04/25 07:41:13;;;;;;;6.95;5.10;;;;;;;14.26;67.08;100653.47;5031853;27;102502;-49
2022/04/25 07:43:40;;;;;;;5.85;5.35;;;;;;;14.24;67.23;100648.28;5023190;27;103996;-49
2022/04/25 07:46:06;;;;;;;6.72;5.50;;;;;;;14.25;67.03;100655.41;5013198;28;102300;-49
2022/04/25 07:48:34;;;;;;;7.05;5.07;;;;;;;14.27;67.12;100644.16;5012597;28;101963;-49
2022/04/25 07:51:00;;;;;;;6.80;4.80;;;;;;;14.29;66.85;100650.16;5013556;28;101928;-49
2022/04/25 07:53:31;;;;;;;6.30;5.25;;;;;;;14.28;66.80;100651.25;5017956;28;104148;-49
2022/04/25 07:56:00;;;;;;;6.63;5.17;;;;;;;14.29;67.11;100652.88;5018177;27;102243;-50
2022/04/25 07:58:27;;;;;;;6.20;5.45;;;;;;;14.31;66.89;100656.13;5013341;28;102131;-49
2022/04/25 08:00:55;;;;;;;6.05;5.43;;;;;;;14.31;66.94;100654.19;5033097;27;102872;-49
2022/04/25 08:03:22;;;;;;;5.00;4.57;;;;;;;14.31;67.24;100650.66;5031973;27;104012;-49
2022/04/25 08:05:48;;;;;;;5.80;5.15;;;;;;;14.32;66.98;100646.81;5025917;27;102000;-50
2022/04/25 08:08:15;;;;;;;5.70;5.13;;;;;;;14.33;66.99;100648.44;5017628;27;101988;-49
2022/04/25 08:10:43;;;;;;;5.72;4.95;;;;;;;14.34;66.90;100652.81;5025108;27;102319;-50
2022/04/25 08:19:01;;;;;;;7.13;5.25;;;;;;;14.34;66.77;100636.38;5016349;27;102019;-49
2022/04/25 08:21:28;;;;;;;6.80;5.28;;;;;;;14.36;67.06;100653.31;5020175;27;102187;-50
2022/04/25 08:24:02;;;;;;;7.43;5.05;;;;;;;14.36;66.79;100642.38;5023561;27;103903;-49
2022/04/25 08:26:29;;;;;;;5.30;4.80;;;;;;;14.36;66.77;100639.63;5011961;27;102157;-50
2022/04/25 08:28:59;;;;;;;5.70;5.00;;;;;;;14.37;66.97;100644.00;5016531;27;102229;-50
2022/04/25 08:31:26;;;;;;;5.60;5.05;;;;;;;14.38;66.92;100645.63;5026472;27;103237;-50
2022/04/25 08:33:53;;;;;;;5.60;4.95;;;;;;;14.38;66.59;100631.91;5022727;27;103679;-49
2022/04/25 08:36:21;;;;;;;6.35;4.90;;;;;;;14.39;66.86;100639.03;5015147;28;102556;-50
2022/04/25 08:38:47;;;;;;;4.97;4.53;;;;;;;14.39;66.74;100636.31;5017071;27;104166;-51
2022/04/25 08:41:15;;;;;;;5.22;4.65;;;;;;;14.39;66.88;100633.56;5034198;27;102547;-50
2022/04/25 08:43:54;;;;;;;6.38;4.85;;;;;;;14.39;66.48;100630.84;5032702;27;103929;-49
2022/04/25 08:46:23;;;;;;;5.50;5.00;;;;;;;14.38;66.72;100626.44;5021647;27;102496;-50
2022/04/25 08:48:52;;;;;;;6.38;4.50;;;;;;;14.40;66.81;100626.97;5012164;28;102377;-50
2022/04/25 08:51:20;;;;;;;5.07;4.50;;;;;;;14.39;66.77;100620.69;5016947;27;102379;-51
2022/04/25 08:53:46;;;;;;;6.43;4.47;;;;;;;14.39;66.68;100620.69;5018134;27;106293;-51
2022/04/25 08:56:16;;;;;;;5.78;5.18;;;;;;;14.39;66.86;100619.88;5034295;27;102382;-50
2022/04/25 08:58:46;;;;;;;5.13;4.22;;;;;;;14.39;66.65;100611.66;5025784;27;102524;-50
2022/04/25 09:01:12;;;;;;;;;;;;;;;14.39;66.95;100614.41;5021262;27;102565;-49
2022/04/25 09:03:41;;;;;;;6.22;4.28;;;;;;;14.38;66.50;100607.28;5021938;27;104103;-49
2022/04/25 09:06:09;;;;;;;;;;;;;;;14.38;66.49;100607.28;5029389;27;102200;-49
2022/04/25 09:08:36;;;;;;;4.88;4.03;;;;;;;14.39;66.29;100589.75;5040376;27;102614;-49
2022/04/25 09:13:51;;;;;;;5.28;4.63;;;;;;;14.39;66.64;100603.47;5020433;27;103979;-49
2022/04/25 09:16:17;;;;;;;4.50;4.10;;;;;;;14.39;66.67;100592.50;5017240;27;102895;-50
2022/04/25 09:18:45;;;;;;;5.45;4.18;;;;;;;14.41;66.45;100593.81;5027640;27;102923;-51
2022/04/25 09:21:14;;;;;;;5.53;4.60;;;;;;;14.39;66.26;100593.31;5025300;27;102190;-50
2022/04/25 09:23:41;;;;;;;4.97;4.47;;;;;;;14.41;66.40;100587.53;5026790;27;104128;-50
2022/04/25 09:26:13;;;;;;;5.07;4.22;;;;;;;14.40;66.77;100589.47;5038797;27;102319;-49
2022/04/25 09:28:51;;;;;;;4.68;4.28;;;;;;;14.40;66.32;100586.72;5033148;27;101822;-49
2022/04/25 09:31:22;;;;;;;5.45;4.05;;;;;;;14.40;66.58;100583.16;5028487;27;102699;-50
2022/04/25 09:33:51;;;;;;;4.53;4.10;;;;;;;14.41;66.62;100587.53;5046410;27;104619;-48
2022/04/25 09:36:18;;;;;;;4.85;4.07;;;;;;;14.40;66.38;100570.28;5022364;27;102246;-49
2022/04/25 09:38:45;;;;;;;4.47;4.07;;;;;;;14.40;66.12;100566.75;5025138;27;102640;-49
2022/04/25 09:41:13;;;;;;;5.97;4.28;;;;;;;14.41;66.08;100573.84;5019475;27;102612;-49
2022/04/25 09:43:40;;;;;;;4.60;4.15;;;;;;;14.39;66.24;100565.94;5025536;28;103772;-50
2022/04/25 09:46:09;;;;;;;4.72;4.18;;;;;;;14.41;66.33;100569.16;5018307;28;102176;-48
2022/04/25 09:48:36;;;;;;;6.33;3.57;;;;;;;14.40;66.24;100573.03;5026454;28;102429;-51
2022/04/25 09:51:06;;;;;;;7.95;3.88;;;;;;;14.41;66.27;100573.84;5024657;27;102342;-49
2022/04/25 09:53:42;;;;;;;3.92;3.30;;;;;;;14.39;66.03;100559.66;5030368;27;103947;-49
2022/04/25 09:56:10;;;;;;;3.85;3.35;;;;;;;14.38;66.22;100563.47;5026267;27;102732;-48
2022/04/25 09:58:38;;;;;;;6.53;3.67;;;;;;;14.37;66.09;100573.63;5030393;27;102382;-49
2022/04/25 10:01:11;;;;;;;5.15;3.70;;;;;;;14.39;65.96;100565.94;5012525;28;102214;-49
2022/04/25 10:03:39;;;;;;;4.07;3.65;;;;;;;14.38;65.97;100563.47;5011963;27;103943;-52
2022/04/25 10:06:07;;;;;;;4.45;3.17;;;;;;;14.38;65.92;100558.00;5033150;27;102126;-49
2022/04/25 10:08:37;;;;;;;3.92;3.50;;;;;;;14.38;66.24;100552.53;5021115;27;102240;-49
2022/04/25 10:11:07;;;;;;;3.42;3.10;;;;;;;14.38;66.13;100563.47;5035397;27;103696;-49
2022/04/25 10:13:35;;;;;;;3.72;3.20;;;;;;;14.37;66.08;100564.59;5029821;27;104100;-50
2022/04/25 10:16:02;;;;;;;3.80;3.40;;;;;;;14.36;65.99;100565.72;5031605;27;102460;-48
2022/04/25 10:18:31;;;;;;;4.20;3.80;;;;;;;14.35;66.16;100569.56;5023666;27;102034;-49
2022/04/25 10:21:00;;;;;;;7.25;3.55;;;;;;;14.35;66.09;100564.06;5024501;27;102066;-48
2022/04/25 10:23:28;;;;;;;3.40;3.10;;;;;;;14.35;66.23;100569.56;5036296;27;103938;-50
2022/04/25 10:25:59;;;;;;;4.47;3.60;;;;;;;14.35;65.67;100572.28;5030746;27;102037;-49
2022/04/25 10:28:29;;;;;;;4.63;3.50;;;;;;;14.34;66.03;100566.00;5017984;27;101866;-52
2022/04/25 10:31:02;;;;;;;5.75;3.38;;;;;;;14.34;65.71;100571.47;5026916;27;102415;-50
2022/04/25 10:33:48;;;;;;;3.95;3.20;;;;;;;14.33;65.97;100566.31;5016425;27;103839;-49
2022/04/25 10:36:44;;;;;;;3.95;3.47;;;;;;;14.33;65.89;100578.06;5021724;27;102605;-49
2022/04/25 10:39:13;;;;;;;3.50;3.20;;;;;;;14.32;65.87;100565.50;5015389;27;102361;-49
2022/04/25 10:44:49;;;;;;;3.22;2.92;;;;;;;14.31;65.95;100557.59;5028394;27;104097;-49
2022/04/25 10:47:18;;;;;;;4.82;3.08;;;;;;;14.31;66.01;100563.88;5015399;27;101976;-53
2022/04/25 10:49:48;;;;;;;4.43;3.40;;;;;;;14.31;66.02;100563.06;5019254;27;102399;-48
2022/04/25 10:55:30;;;;;;;3.90;3.40;;;;;;;14.31;65.67;100560.31;5014740;27;103905;-49
2022/04/25 10:58:20;;;;;;;4.13;3.67;;;;;;;14.30;65.69;100564.19;5025681;27;101983;-49
2022/04/25 11:00:54;;;;;;;4.00;3.38;;;;;;;14.30;66.09;100558.69;5017156;27;102536;-49
2022/04/25 11:03:27;;;;;;;6.00;4.22;;;;;;;14.29;66.05;100555.16;5032060;27;102026;-49
2022/04/25 11:05:57;;;;;;;4.68;3.55;;;;;;;14.28;66.18;100553.53;5026128;27;103743;-49
2022/04/25 11:08:32;;;;;;;4.72;3.65;;;;;;;14.28;65.92;100548.06;5013655;27;102476;-49
2022/04/25 11:11:05;;;;;;;4.72;3.88;;;;;;;14.29;65.71;100554.34;5024965;27;102806;-49
2022/04/25 11:13:35;;;;;;;5.53;3.95;;;;;;;14.27;65.93;100548.34;5024246;27;102169;-49
2022/04/25 11:16:15;;;;;;;76.10;13.27;;;;;;;14.25;65.95;100542.38;5023311;27;103780;-49
2022/04/25 11:18:42;;;;;;;24.20;5.15;;;;;;;14.26;65.78;100544.00;5018098;27;102026;-49
2022/04/25 11:21:18;;;;;;;6.53;3.95;;;;;;;14.27;66.16;100540.13;5027581;27;102555;-49
2022/04/25 11:23:50;;;;;;;6.35;3.78;;;;;;;14.25;65.74;100542.38;5022159;27;102485;-49
2022/04/25 11:26:58;;;;;;;6.20;3.95;;;;;;;14.25;66.01;100542.38;5029554;27;103989;-50
2022/04/25 11:29:25;;;;;;;5.20;3.88;;;;;;;14.25;66.01;100545.13;5021761;28;102335;-49
2022/04/25 11:31:52;;;;;;;5.07;3.30;;;;;;;14.24;65.89;100538.00;5033300;27;102301;-50
2022/04/25 11:34:22;;;;;;;4.50;3.53;;;;;;;14.23;65.94;100537.19;5034343;27;102147;-49
2022/04/25 11:36:50;;;;;;;4.72;3.95;;;;;;;14.24;66.12;100535.25;5027107;27;103834;-50
2022/04/25 11:42:07;;;;;;;3.70;3.35;;;;;;;14.22;65.99;100513.69;5020897;27;102306;-52
2022/04/25 11:44:38;;;;;;;6.00;3.55;;;;;;;14.23;65.88;100506.28;5024568;27;103019;-50
2022/04/25 11:47:08;;;;;;;5.50;3.53;;;;;;;14.23;65.80;100500.78;5022517;27;103957;-49
2022/04/25 11:49:38;;;;;;;4.97;3.53;;;;;;;14.23;65.92;100506.28;5022435;27;102619;-49
2022/04/25 11:52:06;;;;;;;3.67;3.20;;;;;;;14.23;65.64;100517.22;5030420;27;102126;-50
2022/04/25 11:54:33;;;;;;;4.30;3.45;;;;;;;14.22;65.73;100518.34;5027782;27;102172;-50
2022/04/25 11:57:01;;;;;;;3.65;3.35;;;;;;;14.22;65.82;100512.88;5023184;27;104074;-49
2022/04/25 11:59:32;;;;;;;5.47;3.28;;;;;;;14.21;65.64;100513.97;5033109;27;102291;-49
2022/04/25 12:01:59;;;;;;;3.95;3.13;;;;;;;14.22;65.92;100515.59;5031104;27;102327;-49